Time;durP1;ratioP1;P1;durP2;ratioP2;P2;SDS_P1;SDS_P2;PMS_P1;PMS_P2;Temp;Humidity;BMP_temperature;BMP_pressure;BME280_temperature;BME280_humidity;BME280_pressure;Samples;Min_cycle;Max_cycle;Signal;HPM_P1;HPM_P2
2023/03/06 00:01:27;;;;;;;;;2.00;2.00;;;;;20.19;50.93;99797.82;109950;1253;18814;-39
2023/03/06 00:03:55;;;;;;;;;3.00;3.00;;;;;20.19;50.74;99797.99;110005;1253;20924;-37
2023/03/06 00:06:22;;;;;;;;;4.00;3.00;;;;;20.19;50.80;99801.25;110015;1267;19574;-39
2023/03/06 00:08:50;;;;;;;;;3.00;3.00;;;;;20.18;50.64;99794.88;110006;1267;22779;-39
2023/03/06 00:11:17;;;;;;;;;1.00;1.00;;;;;20.18;50.78;99798.52;109985;1254;20705;-39
2023/03/06 00:13:45;;;;;;;;;2.00;2.00;;;;;20.16;50.86;99794.71;110025;1267;18656;-39
2023/03/06 00:16:12;;;;;;;;;3.00;3.00;;;;;20.17;50.74;99800.40;110037;1267;20323;-40
2023/03/06 00:18:40;;;;;;;;;2.00;2.00;;;;;20.17;50.83;99801.71;110006;1267;19433;-38
2023/03/06 00:21:08;;;;;;;;;1.00;1.00;;;;;20.16;50.89;99798.85;109995;1267;18345;-39
2023/03/06 00:23:35;;;;;;;;;1.50;1.50;;;;;20.16;50.69;99799.42;110001;1267;18597;-39
2023/03/06 00:26:03;;;;;;;;;3.00;3.00;;;;;20.15;50.74;99800.77;110032;1267;19402;-38
2023/03/06 00:28:31;;;;;;;;;3.00;3.00;;;;;20.16;50.53;99800.55;110011;1252;19685;-38
2023/03/06 00:30:58;;;;;;;;;3.00;3.00;;;;;20.15;50.48;99801.04;110019;1260;20216;-38
2023/03/06 00:33:26;;;;;;;;;3.00;3.00;;;;;20.14;50.54;99797.85;110017;1253;20702;-39
2023/03/06 00:35:53;;;;;;;;;3.00;3.00;;;;;20.14;50.70;99800.58;110029;1253;19818;-39
2023/03/06 00:38:21;;;;;;;;;4.00;4.00;;;;;20.14;50.52;99796.39;110008;1267;19866;-39
2023/03/06 00:40:48;;;;;;;;;3.00;3.00;;;;;20.15;50.48;99795.80;110023;1253;21133;-39
2023/03/06 00:43:16;;;;;;;;;3.00;3.00;;;;;20.16;50.49;99800.21;109983;1267;19549;-40
2023/03/06 00:45:43;;;;;;;;;3.00;3.00;;;;;20.16;50.39;99797.15;110027;1251;18642;-38
2023/03/06 00:48:11;;;;;;;;;1.00;1.00;;;;;20.14;50.45;99791.11;110033;1267;23179;-39
2023/03/06 00:50:38;;;;;;;;;3.00;3.00;;;;;20.15;50.42;99791.08;109984;1267;19796;-39
2023/03/06 00:53:05;;;;;;;;;4.00;4.00;;;;;20.15;50.38;99790.54;109998;1267;20258;-39
2023/03/06 00:55:33;;;;;;;;;3.00;3.00;;;;;20.14;50.40;99787.52;110005;1267;22940;-39
2023/03/06 00:58:00;;;;;;;;;3.00;3.00;;;;;20.14;50.35;99786.42;109903;1253;19894;-39
2023/03/06 01:00:28;;;;;;;;;3.00;3.00;;;;;20.13;50.25;99782.20;109939;1267;18722;-39
2023/03/06 01:02:55;;;;;;;;;4.00;3.00;;;;;20.15;50.27;99780.95;110024;1267;19671;-39
2023/03/06 01:05:23;;;;;;;;;3.00;3.00;;;;;20.13;50.30;99776.64;110033;1267;18355;-39
2023/03/06 01:07:51;;;;;;;;;3.00;3.00;;;;;20.13;50.44;99777.55;110022;1267;18673;-39
2023/03/06 01:10:18;;;;;;;;;4.00;3.00;;;;;20.13;50.39;99773.38;110029;1267;19343;-39
2023/03/06 01:12:45;;;;;;;;;7.00;4.00;;;;;20.13;50.59;99772.41;109974;1267;18323;-39
2023/03/06 01:15:13;;;;;;;;;3.00;3.00;;;;;20.13;50.35;99769.90;110032;1267;18541;-39
2023/03/06 01:17:40;;;;;;;;;3.50;3.50;;;;;20.14;50.19;99770.90;110015;1267;19357;-38
2023/03/06 01:20:08;;;;;;;;;3.00;3.00;;;;;20.12;50.34;99767.80;110005;1267;18451;-39
2023/03/06 01:22:35;;;;;;;;;3.00;3.00;;;;;20.12;50.33;99763.13;110008;1253;21579;-39
2023/03/06 01:25:03;;;;;;;;;1.00;1.00;;;;;20.12;50.28;99762.45;109998;1253;20758;-39
2023/03/06 01:27:30;;;;;;;;;3.00;3.00;;;;;20.12;50.52;99762.95;110007;1267;18717;-39
2023/03/06 01:29:57;;;;;;;;;3.00;3.00;;;;;20.11;50.23;99760.68;110005;1251;20003;-40
2023/03/06 01:32:25;;;;;;;;;3.00;1.67;;;;;20.12;50.11;99766.41;110016;1267;20663;-39
2023/03/06 01:34:52;;;;;;;;;1.00;1.00;;;;;20.11;50.11;99766.50;110000;1253;19599;-39
2023/03/06 01:37:20;;;;;;;;;3.00;3.00;;;;;20.11;50.21;99767.29;110005;1267;18625;-39
2023/03/06 01:39:48;;;;;;;;;3.00;3.00;;;;;20.11;50.11;99767.24;110034;1267;22229;-39
2023/03/06 01:42:15;;;;;;;;;3.00;3.00;;;;;20.10;50.06;99763.77;110008;1251;21729;-39
2023/03/06 01:44:43;;;;;;;;;3.00;3.00;;;;;20.11;50.16;99765.52;109991;1251;22458;-39
2023/03/06 01:47:10;;;;;;;;;3.00;3.00;;;;;20.10;50.06;99764.98;110020;1267;19725;-39
2023/03/06 01:49:37;;;;;;;;;1.00;1.00;;;;;20.11;50.25;99762.27;110039;1267;18512;-39
2023/03/06 01:52:05;;;;;;;;;4.00;4.00;;;;;20.10;50.09;99761.45;109921;1267;18672;-38
2023/03/06 01:54:32;;;;;;;;;4.00;3.00;;;;;20.11;50.16;99765.24;109965;1260;20875;-39
2023/03/06 01:57:00;;;;;;;;;3.00;3.00;;;;;20.10;50.21;99758.55;110047;1267;19517;-38
2023/03/06 01:59:27;;;;;;;;;3.00;3.00;;;;;20.10;50.17;99753.41;110025;1267;18605;-39
2023/03/06 02:01:55;;;;;;;;;3.00;3.00;;;;;20.11;50.20;99755.55;110007;1267;19572;-40
2023/03/06 02:04:22;;;;;;;;;3.00;3.00;;;;;20.11;49.86;99751.92;110000;1252;23007;-40
2023/03/06 02:06:49;;;;;;;;;3.00;3.00;;;;;20.10;50.12;99750.16;109998;1254;19959;-38
2023/03/06 02:09:17;;;;;;;;;3.50;3.50;;;;;20.10;50.16;99751.27;110008;1267;20830;-39
2023/03/06 02:11:45;;;;;;;;;3.00;3.00;;;;;20.09;49.99;99746.42;109997;1267;19667;-38
2023/03/06 02:14:12;;;;;;;;;3.00;3.00;;;;;20.09;50.07;99742.31;109987;1251;22152;-38
2023/03/06 02:16:40;;;;;;;;;3.00;3.00;;;;;20.10;49.97;99746.38;110049;1251;20775;-38
2023/03/06 02:19:07;;;;;;;;;3.00;3.00;;;;;20.09;50.06;99742.69;109999;1253;19630;-38
2023/03/06 02:21:35;;;;;;;;;3.00;3.00;;;;;20.09;50.08;99740.35;110025;1253;21311;-38
2023/03/06 02:24:02;;;;;;;;;4.00;3.50;;;;;20.09;49.89;99739.09;110006;1267;19342;-38
2023/03/06 02:26:30;;;;;;;;;3.00;3.00;;;;;20.09;50.09;99738.55;110001;1253;19707;-38
2023/03/06 02:28:58;;;;;;;;;3.00;3.00;;;;;20.09;50.02;99736.34;110030;1260;20122;-38
2023/03/06 02:31:25;;;;;;;;;3.00;3.00;;;;;20.08;50.02;99739.00;110017;1253;20696;-39
2023/03/06 02:33:53;;;;;;;;;3.50;3.50;;;;;20.08;49.71;99737.54;109997;1267;18626;-38
2023/03/06 02:36:20;;;;;;;;;3.00;3.00;;;;;20.08;49.89;99732.81;110014;1267;18789;-37
2023/03/06 02:38:48;;;;;;;;;4.00;4.00;;;;;20.08;50.05;99734.44;110028;1267;21615;-39
2023/03/06 02:41:15;;;;;;;;;3.50;3.50;;;;;20.08;50.00;99728.13;110016;1267;19537;-38
2023/03/06 02:43:42;;;;;;;;;3.00;3.00;;;;;20.07;49.87;99730.25;109988;1251;18643;-38
2023/03/06 02:46:10;;;;;;;;;3.00;3.00;;;;;20.07;49.87;99729.01;110005;1259;24000;-39
2023/03/06 02:48:37;;;;;;;;;1.00;1.00;;;;;20.06;50.01;99731.13;109968;1251;18326;-41
2023/03/06 02:51:05;;;;;;;;;3.33;3.33;;;;;20.07;49.77;99736.40;109904;1267;18662;-39
2023/03/06 02:53:32;;;;;;;;;3.00;3.00;;;;;20.07;49.73;99734.27;110019;1267;20966;-39
2023/03/06 02:56:00;;;;;;;;;3.00;3.00;;;;;20.07;49.94;99733.15;110046;1267;19827;-39
2023/03/06 02:58:27;;;;;;;;;3.00;3.00;;;;;20.07;49.72;99732.73;109988;1251;18709;-39
2023/03/06 03:00:54;;;;;;;;;3.00;3.00;;;;;20.06;49.69;99733.05;110033;1267;19418;-39
2023/03/06 03:03:22;;;;;;;;;1.00;1.00;;;;;20.05;49.61;99729.20;110039;1253;23822;-39
2023/03/06 03:05:49;;;;;;;;;3.00;3.00;;;;;20.06;49.62;99730.55;109998;1267;19108;-39
2023/03/06 03:08:17;;;;;;;;;4.00;3.00;;;;;20.05;49.75;99725.59;109994;1252;22028;-39
2023/03/06 03:10:44;;;;;;;;;3.00;3.00;;;;;20.05;49.74;99726.59;110039;1267;19544;-39
2023/03/06 03:13:12;;;;;;;;;5.33;4.00;;;;;20.05;49.89;99728.19;109997;1253;20401;-39
2023/03/06 03:15:40;;;;;;;;;3.50;3.00;;;;;20.06;49.60;99723.77;110015;1267;19254;-39
2023/03/06 03:18:08;;;;;;;;;3.00;3.00;;;;;20.04;49.54;99722.47;110031;1267;22774;-39
2023/03/06 03:20:36;;;;;;;;;3.00;3.00;;;;;20.05;49.79;99720.02;110031;1267;22796;-39
2023/03/06 03:23:03;;;;;;;;;3.00;3.00;;;;;20.04;49.58;99722.10;110008;1267;20848;-39
2023/03/06 03:25:31;;;;;;;;;4.00;4.00;;;;;20.05;49.68;99723.08;109925;1253;21047;-40
2023/03/06 03:27:58;;;;;;;;;3.00;3.00;;;;;20.04;49.59;99718.64;109950;1267;18754;-37
2023/03/06 03:30:26;;;;;;;;;3.00;3.00;;;;;20.04;49.62;99716.80;110035;1267;20667;-39
2023/03/06 03:32:53;;;;;;;;;3.00;3.00;;;;;20.04;49.83;99718.44;110044;1267;19804;-40
2023/03/06 03:35:20;;;;;;;;;3.00;3.00;;;;;20.05;49.56;99716.22;110019;1267;18685;-39
2023/03/06 03:37:48;;;;;;;;;3.00;3.00;;;;;20.05;49.66;99717.31;110014;1267;19829;-40
2023/03/06 03:40:15;;;;;;;;;3.00;3.00;;;;;20.04;49.51;99713.27;109986;1267;18806;-40
2023/03/06 03:42:43;;;;;;;;;3.00;3.00;;;;;20.04;49.53;99710.90;109991;1267;18573;-39
2023/03/06 03:45:10;;;;;;;;;3.00;3.00;;;;;20.03;49.52;99711.58;109996;1251;22242;-39
2023/03/06 03:47:38;;;;;;;;;3.00;3.00;;;;;20.04;49.53;99708.01;110022;1267;19500;-38
2023/03/06 03:50:05;;;;;;;;;4.00;3.50;;;;;20.03;49.52;99700.49;110026;1267;22264;-38
2023/03/06 03:52:32;;;;;;;;;3.00;3.00;;;;;20.02;49.40;99703.30;110019;1267;20777;-38
2023/03/06 03:55:00;;;;;;;;;4.00;4.00;;;;;20.03;49.56;99703.17;110022;1253;20820;-40
2023/03/06 03:57:28;;;;;;;;;3.50;3.50;;;;;20.02;49.66;99697.70;110016;1267;20004;-39
2023/03/06 03:59:55;;;;;;;;;3.50;3.00;;;;;20.02;49.60;99696.06;110033;1260;19400;-38
2023/03/06 04:02:22;;;;;;;;;3.00;3.00;;;;;20.01;49.60;99694.30;109987;1267;21004;-39
2023/03/06 04:04:50;;;;;;;;;4.00;3.00;;;;;20.03;49.48;99694.89;110020;1267;20336;-39
2023/03/06 04:07:17;;;;;;;;;3.00;3.00;;;;;20.01;49.42;99697.40;110012;1267;20725;-39
2023/03/06 04:09:45;;;;;;;;;4.00;4.00;;;;;20.02;49.39;99703.51;109989;1267;19487;-39
2023/03/06 04:12:12;;;;;;;;;3.00;3.00;;;;;20.01;49.40;99690.49;110007;1267;21127;-39
2023/03/06 04:14:40;;;;;;;;;3.00;3.00;;;;;20.00;49.39;99687.70;109996;1253;20844;-39
2023/03/06 04:17:07;;;;;;;;;4.00;3.00;;;;;20.01;49.64;99690.75;109928;1267;21745;-39
2023/03/06 04:19:34;;;;;;;;;3.00;3.00;;;;;20.02;49.47;99688.28;110002;1267;18640;-40
2023/03/06 04:22:02;;;;;;;;;3.00;3.00;;;;;20.01;49.49;99688.57;110017;1267;20730;-38
2023/03/06 04:24:29;;;;;;;;;3.00;3.00;;;;;20.00;49.37;99686.27;110011;1267;21914;-38
2023/03/06 04:26:57;;;;;;;;;4.00;4.00;;;;;20.00;49.42;99683.55;109990;1267;20200;-40
2023/03/06 04:29:24;;;;;;;;;3.00;3.00;;;;;20.00;49.41;99679.36;110008;1267;19242;-39
2023/03/06 04:31:51;;;;;;;;;3.00;3.00;;;;;20.00;49.48;99681.38;109997;1267;18423;-39
2023/03/06 04:34:19;;;;;;;;;3.00;3.00;;;;;20.00;49.18;99677.27;110019;1267;18748;-38
2023/03/06 04:36:46;;;;;;;;;3.00;3.00;;;;;20.00;49.46;99679.20;109997;1267;22116;-38
2023/03/06 04:39:14;;;;;;;;;3.00;3.00;;;;;20.00;49.11;99680.87;110037;1267;18326;-39
2023/03/06 04:41:41;;;;;;;;;3.00;3.00;;;;;19.99;49.28;99679.48;110018;1252;22620;-39
2023/03/06 04:44:08;;;;;;;;;3.00;3.00;;;;;20.00;49.29;99673.38;110010;1260;21139;-38
2023/03/06 04:46:36;;;;;;;;;3.00;3.00;;;;;19.99;49.25;99671.91;109985;1251;20820;-39
2023/03/06 04:49:03;;;;;;;;;4.00;4.00;;;;;20.00;49.26;99666.98;110009;1267;18635;-39
2023/03/06 04:51:31;;;;;;;;;3.00;3.00;;;;;19.99;49.22;99664.88;109978;1267;19373;-39
2023/03/06 04:53:58;;;;;;;;;3.00;3.00;;;;;19.99;49.32;99663.27;110013;1251;19660;-39
2023/03/06 04:56:26;;;;;;;;;3.00;3.00;;;;;19.99;49.15;99660.70;110003;1267;18545;-39
2023/03/06 04:58:53;;;;;;;;;3.00;3.00;;;;;19.99;49.17;99669.06;109992;1267;20533;-39
2023/03/06 05:01:20;;;;;;;;;4.00;4.00;;;;;19.99;49.18;99663.96;109999;1251;19646;-39
2023/03/06 05:03:48;;;;;;;;;3.00;3.00;;;;;19.98;49.29;99659.89;110011;1267;21069;-39
2023/03/06 05:06:15;;;;;;;;;4.67;4.00;;;;;19.99;49.23;99657.64;110013;1259;20799;-40
2023/03/06 05:08:43;;;;;;;;;5.00;3.00;;;;;19.98;49.14;99651.90;110020;1253;19714;-40
2023/03/06 05:11:10;;;;;;;;;2.00;2.00;;;;;19.98;49.25;99652.12;109993;1267;21019;-38
2023/03/06 05:13:38;;;;;;;;;3.00;3.00;;;;;19.98;49.20;99652.48;110007;1253;20859;-38
2023/03/06 05:16:05;;;;;;;;;3.00;3.00;;;;;19.98;48.97;99650.10;110020;1267;21865;-37
2023/03/06 05:18:33;;;;;;;;;4.00;3.00;;;;;19.97;49.01;99646.58;110008;1267;19979;-38
2023/03/06 05:21:00;;;;;;;;;3.00;3.00;;;;;19.98;49.15;99654.11;110005;1251;20822;-38
2023/03/06 05:23:27;;;;;;;;;6.00;4.00;;;;;19.98;49.33;99655.24;110015;1267;19566;-39
2023/03/06 05:25:55;;;;;;;;;4.00;4.00;;;;;19.98;49.22;99650.48;110021;1267;19970;-39
2023/03/06 05:28:22;;;;;;;;;3.00;3.00;;;;;19.98;49.24;99651.02;110012;1267;19357;-41
2023/03/06 05:30:50;;;;;;;;;4.00;4.00;;;;;19.98;49.19;99651.23;110032;1253;19660;-39
2023/03/06 05:33:17;;;;;;;;;3.00;3.00;;;;;19.97;49.08;99644.31;110010;1260;22790;-40
2023/03/06 05:35:44;;;;;;;;;3.00;3.00;;;;;19.97;49.22;99648.58;110005;1267;21112;-39
2023/03/06 05:38:12;;;;;;;;;3.00;3.00;;;;;19.97;48.82;99645.70;110013;1267;18382;-39
2023/03/06 05:40:39;;;;;;;;;3.00;3.00;;;;;19.97;49.02;99642.44;110002;1267;18669;-40
2023/03/06 05:43:07;;;;;;;;;3.00;3.00;;;;;19.97;48.98;99641.30;110033;1253;20711;-40
2023/03/06 05:45:34;;;;;;;;;4.00;4.00;;;;;19.97;48.94;99638.09;110011;1260;18393;-40
2023/03/06 05:48:02;;;;;;;;;3.50;3.00;;;;;19.97;49.00;99637.00;110002;1253;20044;-39
2023/03/06 05:50:29;;;;;;;;;3.00;3.00;;;;;19.97;49.05;99632.34;110018;1267;19488;-38
2023/03/06 05:52:57;;;;;;;;;3.00;3.00;;;;;19.98;49.26;99637.79;109925;1267;18415;-39
2023/03/06 05:55:24;;;;;;;;;4.00;3.00;;;;;19.98;49.02;99639.09;109935;1267;22992;-38
2023/03/06 05:57:51;;;;;;;;;3.00;3.00;;;;;19.98;48.98;99637.11;110023;1267;19319;-38
2023/03/06 06:00:19;;;;;;;;;3.00;3.00;;;;;19.97;49.14;99630.42;110043;1251;18556;-37
2023/03/06 06:02:46;;;;;;;;;3.00;3.00;;;;;19.98;49.04;99629.33;110046;1252;20172;-38
2023/03/06 06:05:14;;;;;;;;;4.00;3.00;;;;;19.97;48.85;99627.91;110012;1253;22232;-38
2023/03/06 06:07:41;;;;;;;;;6.00;4.00;;;;;19.98;48.82;99622.48;110041;1253;19712;-38
2023/03/06 06:10:08;;;;;;;;;4.00;4.00;;;;;19.99;48.89;99624.67;109893;1267;22200;-38
2023/03/06 06:12:36;;;;;;;;;3.00;3.00;;;;;19.98;48.84;99622.32;109976;1267;19351;-39
2023/03/06 06:15:03;;;;;;;;;3.50;3.50;;;;;19.99;48.92;99627.56;110004;1267;22552;-40
2023/03/06 06:17:31;;;;;;;;;3.00;3.00;;;;;19.98;48.79;99629.39;110039;1267;18766;-39
2023/03/06 06:19:59;;;;;;;;;3.00;3.00;;;;;20.03;48.80;99633.42;109992;1267;20740;-39
2023/03/06 06:22:26;;;;;;;;;4.00;4.00;;;;;20.04;48.97;99634.87;110005;1253;20133;-40
2023/03/06 06:24:54;;;;;;;;;4.00;4.00;;;;;20.08;49.15;99635.60;110003;1253;20307;-38
2023/03/06 06:27:21;;;;;;;;;4.00;4.00;;;;;20.09;49.72;99629.70;110014;1267;22204;-39
2023/03/06 06:29:48;;;;;;;;;3.50;3.50;;;;;20.08;50.29;99632.63;109989;1267;18418;-39
2023/03/06 06:32:16;;;;;;;;;22.00;18.50;;;;;20.11;50.26;99638.35;110023;1267;18609;-41
2023/03/06 06:34:43;;;;;;;;;126.00;106.00;;;;;20.16;49.97;99638.33;109982;1267;22758;-40
2023/03/06 06:37:11;;;;;;;;;113.00;92.00;;;;;20.14;51.27;99639.62;110008;1253;20191;-39
2023/03/06 06:39:38;;;;;;;;;;;;;;;20.14;51.89;99637.43;110021;1253;20246;-39
2023/03/06 06:42:07;;;;;;;;;108.00;83.50;;;;;20.15;51.98;99641.75;109985;1267;20944;-39
2023/03/06 06:44:34;;;;;;;;;84.00;65.50;;;;;20.16;52.17;99642.23;109948;1253;22886;-39
2023/03/06 06:47:02;;;;;;;;;77.00;60.00;;;;;20.14;52.30;99647.56;109951;1267;18941;-39
2023/03/06 06:49:29;;;;;;;;;76.00;61.00;;;;;20.10;52.13;99647.84;109914;1267;20957;-39
2023/03/06 06:51:57;;;;;;;;;67.00;52.00;;;;;20.11;51.94;99642.63;110010;1267;19926;-39
2023/03/06 06:54:24;;;;;;;;;58.00;48.00;;;;;20.12;52.01;99642.04;109941;1253;20186;-39
2023/03/06 06:56:52;;;;;;;;;48.00;45.50;;;;;20.11;52.23;99638.46;109878;1267;19426;-39
2023/03/06 06:59:19;;;;;;;;;55.00;43.00;;;;;20.12;51.81;99634.38;109958;1267;19994;-39
2023/03/06 07:01:46;;;;;;;;;53.00;43.00;;;;;20.11;51.75;99635.20;109934;1267;20228;-39
2023/03/06 07:04:14;;;;;;;;;46.50;41.00;;;;;20.12;51.98;99637.55;109970;1267;19488;-39
2023/03/06 07:06:41;;;;;;;;;44.33;35.33;;;;;20.13;51.79;99632.04;109901;1254;20212;-39
2023/03/06 07:09:09;;;;;;;;;37.50;35.00;;;;;20.14;51.69;99634.34;109919;1267;18800;-39
2023/03/06 07:11:36;;;;;;;;;37.00;34.00;;;;;20.16;51.01;99635.52;109944;1253;21012;-39
2023/03/06 07:14:04;;;;;;;;;36.00;33.00;;;;;20.15;50.44;99630.49;109991;1267;19045;-39
2023/03/06 07:16:31;;;;;;;;;32.50;29.00;;;;;20.14;51.01;99633.17;110013;1267;22101;-39
2023/03/06 07:18:58;;;;;;;;;30.00;27.00;;;;;20.13;51.22;99634.84;109985;1267;20964;-39
2023/03/06 07:21:26;;;;;;;;;23.00;22.00;;;;;20.12;51.44;99632.07;109983;1251;20032;-39
2023/03/06 07:23:56;;;;;;;;;25.00;24.00;;;;;20.11;51.46;99628.77;110009;1253;22271;-39
2023/03/06 07:26:23;;;;;;;;;22.00;21.50;;;;;20.10;51.22;99630.13;110018;1267;19409;-39
2023/03/06 07:28:52;;;;;;;;;24.00;19.00;;;;;20.10;51.49;99632.83;109987;1251;19939;-39
2023/03/06 07:31:20;;;;;;;;;28.00;24.00;;;;;20.10;51.34;99632.10;110051;1267;21892;-38
2023/03/06 07:33:48;;;;;;;;;24.00;22.00;;;;;20.09;51.32;99630.20;110032;1251;20838;-39
2023/03/06 07:36:15;;;;;;;;;25.00;19.00;;;;;20.10;51.24;99629.29;109981;1251;20046;-38
2023/03/06 07:38:43;;;;;;;;;28.00;22.00;;;;;20.09;51.15;99623.71;110025;1267;20444;-39
2023/03/06 07:41:12;;;;;;;;;18.50;18.50;;;;;20.09;51.24;99620.58;110020;1253;20924;-39
2023/03/06 07:43:40;;;;;;;;;16.00;16.00;;;;;20.09;50.98;99623.34;110025;1267;20218;-39
2023/03/06 07:46:07;;;;;;;;;18.00;18.00;;;;;20.09;50.92;99620.66;110024;1267;20331;-38
2023/03/06 07:48:35;;;;;;;;;18.00;17.00;;;;;20.09;50.89;99626.85;109981;1253;21733;-39
2023/03/06 07:51:02;;;;;;;;;15.00;13.00;;;;;20.09;51.00;99627.40;110058;1267;20007;-39
2023/03/06 07:53:30;;;;;;;;;16.00;15.00;;;;;20.08;51.01;99625.85;110019;1267;22940;-39
2023/03/06 07:55:57;;;;;;;;;17.00;15.00;;;;;20.09;50.75;99627.89;110040;1253;20775;-39
2023/03/06 07:58:25;;;;;;;;;19.00;16.00;;;;;20.10;50.91;99626.20;110055;1267;18604;-38
2023/03/06 08:00:52;;;;;;;;;16.00;15.50;;;;;20.12;50.60;99626.46;110024;1267;18757;-39
2023/03/06 08:03:20;;;;;;;;;19.00;16.00;;;;;20.14;50.60;99627.27;110014;1267;20938;-38
2023/03/06 08:05:47;;;;;;;;;15.00;14.00;;;;;20.15;50.42;99629.11;110045;1267;19954;-38
2023/03/06 08:08:14;;;;;;;;;15.50;14.00;;;;;20.17;50.45;99627.59;110020;1267;18724;-38
2023/03/06 08:10:42;;;;;;;;;11.67;11.33;;;;;20.18;50.84;99628.52;110025;1267;20639;-39
2023/03/06 08:13:09;;;;;;;;;16.00;13.00;;;;;20.19;50.69;99625.13;110033;1267;20000;-38
2023/03/06 08:15:37;;;;;;;;;12.00;10.00;;;;;20.19;50.73;99625.84;110002;1267;20085;-37
2023/03/06 08:18:05;;;;;;;;;11.00;10.00;;;;;20.21;50.59;99626.35;110036;1253;19228;-38
2023/03/06 08:20:32;;;;;;;;;12.00;12.00;;;;;20.21;50.89;99622.09;109952;1261;18736;-37
2023/03/06 08:22:59;;;;;;;;;13.00;10.00;;;;;20.22;51.22;99623.40;109915;1267;20117;-38
2023/03/06 08:25:27;;;;;;;;;10.00;9.00;;;;;20.22;51.43;99621.23;109772;1267;344000;-37
2023/03/06 08:27:54;;;;;;;;;9.00;9.00;;;;;20.22;51.95;99617.87;110065;1267;19957;-37
2023/03/06 08:30:22;;;;;;;;;13.00;12.00;;;;;20.20;51.94;99619.48;110030;1253;20124;-37
2023/03/06 08:32:49;;;;;;;;;12.50;11.00;;;;;20.20;51.97;99617.34;110009;1267;19595;-37
2023/03/06 08:35:17;;;;;;;;;12.00;10.00;;;;;20.21;51.96;99616.67;110003;1253;20014;-38
2023/03/06 08:37:44;;;;;;;;;9.67;9.33;;;;;20.21;51.91;99613.76;109994;1267;18648;-38
2023/03/06 08:40:12;;;;;;;;;10.00;10.00;;;;;20.21;51.79;99616.48;110008;1267;19382;-39
2023/03/06 08:42:39;;;;;;;;;10.00;9.00;;;;;20.22;51.53;99613.80;110003;1251;19605;-40
2023/03/06 08:45:07;;;;;;;;;15.00;12.00;;;;;20.23;51.55;99613.23;109993;1253;22708;-38
2023/03/06 08:47:34;;;;;;;;;10.00;9.00;;;;;20.23;51.51;99612.59;110004;1267;20769;-39
2023/03/06 08:50:02;;;;;;;;;15.00;12.00;;;;;20.25;51.35;99610.68;109999;1267;18511;-39
2023/03/06 08:52:29;;;;;;;;;10.00;10.00;;;;;20.27;51.63;99614.04;110005;1267;21223;-39
2023/03/06 08:55:01;;;;;;;;;12.00;10.00;;;;;20.27;51.99;99614.38;109977;1254;21103;-39
2023/03/06 08:57:28;;;;;;;;;;;;;;;20.27;52.03;99615.95;110003;1267;18665;-38
2023/03/06 08:59:55;;;;;;;;;9.00;9.00;;;;;20.25;51.95;99612.77;110016;1267;20095;-38
2023/03/06 09:02:23;;;;;;;;;10.00;10.00;;;;;20.23;51.72;99618.80;109989;1253;22032;-38
2023/03/06 09:04:50;;;;;;;;;12.00;10.00;;;;;20.23;51.79;99616.23;109999;1267;19518;-38
2023/03/06 09:07:18;;;;;;;;;12.00;12.00;;;;;20.21;51.29;99615.21;109952;1253;20132;-38
2023/03/06 09:09:45;;;;;;;;;13.00;12.00;;;;;20.22;51.27;99616.45;109887;1267;20887;-38
2023/03/06 09:12:13;;;;;;;;;15.67;12.67;;;;;20.21;51.39;99609.69;109990;1267;22525;-38
2023/03/06 09:14:40;;;;;;;;;7.00;7.00;;;;;20.23;51.17;99614.31;110018;1253;20210;-38
2023/03/06 09:17:08;;;;;;;;;10.00;10.00;;;;;20.22;51.04;99617.23;109981;1267;19366;-38
2023/03/06 09:19:36;;;;;;;;;9.00;7.00;;;;;20.21;51.21;99617.90;109949;1267;19528;-38
2023/03/06 09:22:04;;;;;;;;;7.00;7.00;;;;;20.21;51.28;99613.25;109996;1267;20028;-39
2023/03/06 09:24:31;;;;;;;;;10.00;10.00;;;;;20.19;51.14;99612.48;110008;1253;20689;-38
2023/03/06 09:26:58;;;;;;;;;11.00;10.00;;;;;20.19;51.18;99609.27;109987;1251;20741;-38
2023/03/06 09:29:26;;;;;;;;;9.00;9.00;;;;;20.19;51.10;99606.25;110004;1267;18687;-40
2023/03/06 09:31:54;;;;;;;;;12.00;10.00;;;;;20.19;51.13;99607.50;109991;1267;19532;-38
2023/03/06 09:34:21;;;;;;;;;13.00;10.00;;;;;20.18;50.94;99611.61;109990;1253;19564;-38
2023/03/06 09:36:48;;;;;;;;;9.00;9.00;;;;;20.18;51.03;99611.10;110004;1251;21482;-38
2023/03/06 09:39:16;;;;;;;;;9.00;9.00;;;;;20.18;51.00;99612.16;109994;1253;20791;-38
2023/03/06 09:41:44;;;;;;;;;9.00;9.00;;;;;20.18;51.26;99610.77;110022;1267;19523;-39
2023/03/06 09:44:13;;;;;;;;;12.00;12.00;;;;;20.17;51.14;99609.63;110024;1267;20243;-38
2023/03/06 09:46:40;;;;;;;;;10.33;9.33;;;;;20.18;51.09;99602.98;109998;1253;22418;-38
2023/03/06 09:49:10;;;;;;;;;10.00;8.00;;;;;20.18;51.15;99597.38;110024;1253;22662;-38
2023/03/06 09:51:37;;;;;;;;;11.00;9.50;;;;;20.18;51.11;99598.83;110008;1251;19986;-39
2023/03/06 09:54:05;;;;;;;;;10.00;9.00;;;;;20.17;51.11;99597.50;110003;1267;20763;-38
2023/03/06 09:56:33;;;;;;;;;15.50;13.50;;;;;20.19;51.09;99605.20;110041;1267;22535;-38
2023/03/06 09:59:00;;;;;;;;;12.50;12.50;;;;;20.18;50.68;99603.52;109994;1267;18875;-38
2023/03/06 10:01:27;;;;;;;;;12.00;10.00;;;;;20.17;50.67;99600.67;110000;1267;19452;-39
2023/03/06 10:03:55;;;;;;;;;16.00;12.00;;;;;20.15;51.35;99600.46;110021;1267;20024;-38
2023/03/06 10:06:22;;;;;;;;;17.00;13.00;;;;;20.13;51.24;99596.59;109992;1251;18774;-38
2023/03/06 10:08:50;;;;;;;;;15.00;13.00;;;;;20.14;51.14;99596.88;110005;1267;19412;-39
2023/03/06 10:11:17;;;;;;;;;12.00;12.00;;;;;20.17;51.45;99597.96;110019;1251;21650;-38
2023/03/06 10:13:45;;;;;;;;;14.33;13.00;;;;;20.17;51.03;99595.10;109990;1267;18928;-38
2023/03/06 10:16:12;;;;;;;;;13.00;12.00;;;;;20.15;51.01;99599.23;109985;1260;24039;-38
2023/03/06 10:18:39;;;;;;;;;12.00;12.00;;;;;20.16;50.70;99593.46;110030;1267;18565;-38
2023/03/06 10:21:07;;;;;;;;;9.00;9.00;;;;;20.17;50.99;99592.56;109998;1267;20098;-38
2023/03/06 10:23:34;;;;;;;;;12.00;12.00;;;;;20.16;51.20;99591.34;109994;1267;19377;-38
2023/03/06 10:26:02;;;;;;;;;12.50;11.00;;;;;20.16;51.25;99592.30;110012;1267;19605;-38
2023/03/06 10:28:29;;;;;;;;;11.00;10.00;;;;;20.17;51.04;99593.14;109998;1267;18700;-38
2023/03/06 10:30:56;;;;;;;;;11.00;11.00;;;;;20.16;51.05;99593.73;109952;1267;19632;-39
2023/03/06 10:33:24;;;;;;;;;15.00;13.00;;;;;20.17;51.13;99598.75;110013;1267;18529;-38
2023/03/06 10:35:51;;;;;;;;;12.00;10.00;;;;;20.17;50.96;99594.60;110021;1259;20016;-38
2023/03/06 10:38:19;;;;;;;;;9.50;9.00;;;;;20.16;51.08;99595.80;109984;1267;22500;-38
2023/03/06 10:40:47;;;;;;;;;10.00;10.00;;;;;20.16;50.95;99593.77;110021;1267;20156;-38
2023/03/06 10:43:15;;;;;;;;;12.00;10.00;;;;;20.16;51.31;99589.78;110020;1267;22892;-37
2023/03/06 10:45:43;;;;;;;;;8.00;7.00;;;;;20.16;51.16;99587.61;109924;1253;22345;-38
2023/03/06 10:48:11;;;;;;;;;12.00;9.00;;;;;20.15;51.24;99580.98;109908;1267;18562;-38
2023/03/06 10:50:38;;;;;;;;;10.00;10.00;;;;;20.16;51.12;99577.27;110025;1251;18706;-38
2023/03/06 10:53:05;;;;;;;;;9.00;9.00;;;;;20.16;51.29;99573.48;110022;1267;19904;-38
2023/03/06 10:55:33;;;;;;;;;9.00;9.00;;;;;20.16;51.15;99571.70;109983;1253;21289;-38
2023/03/06 10:58:00;;;;;;;;;8.00;8.00;;;;;20.16;51.29;99572.76;110010;1267;18612;-39
2023/03/06 11:00:28;;;;;;;;;7.00;7.00;;;;;20.17;51.35;99578.95;109998;1253;20933;-38
2023/03/06 11:02:55;;;;;;;;;7.00;7.00;;;;;20.17;51.39;99575.31;110014;1267;22110;-39
2023/03/06 11:05:23;;;;;;;;;10.00;9.00;;;;;20.19;51.32;99577.41;110028;1267;18517;-38
2023/03/06 11:07:50;;;;;;;;;10.50;8.50;;;;;20.21;51.60;99578.75;110007;1267;19442;-38
2023/03/06 11:10:18;;;;;;;;;9.50;8.00;;;;;20.23;51.81;99576.82;109980;1267;22948;-39
2023/03/06 11:12:45;;;;;;;;;8.00;8.00;;;;;20.26;52.89;99572.67;110033;1267;18876;-39
2023/03/06 11:15:13;;;;;;;;;9.50;9.50;;;;;20.28;53.29;99568.83;109990;1260;21083;-39
2023/03/06 11:17:40;;;;;;;;;10.00;9.00;;;;;20.28;53.13;99566.07;110024;1267;18738;-39
2023/03/06 11:20:08;;;;;;;;;8.50;7.50;;;;;20.28;53.24;99563.65;110011;1267;22880;-41